Time;durP1;ratioP1;P1;durP2;ratioP2;P2;SDS_P1;SDS_P2;PMS_P1;PMS_P2;Temp;Humidity;BMP_temperature;BMP_pressure;BME280_temperature;BME280_humidity;BME280_pressure;Samples;Min_cycle;Max_cycle;Signal;HPM_P1;HPM_P2
2022/01/16 00:01:15;;;;;;;;;;;;;;;-144.99;100.00;52729.38;4954569;28;19926;-60
2022/01/16 00:06:27;;;;;;;;;;;;;;;-144.99;100.00;52717.16;4946436;28;20003;-59
2022/01/16 00:08:53;;;;;;;;;;;;;;;-144.99;100.00;52745.69;4944820;28;20446;-59
2022/01/16 00:11:19;;;;;;;;;;;;;;;-144.99;100.00;52696.78;4946739;28;19927;-58
2022/01/16 00:13:46;;;;;;;;;;;;;;;-144.99;100.00;52688.63;4946252;29;19945;-56
2022/01/16 00:16:13;;;;;;;;;;;;;;;-144.99;100.00;52717.16;4946185;28;20193;-56
2022/01/16 00:18:49;;;;;;;;;;;;;;;-144.99;100.00;52709.00;4977236;28;19928;-57
2022/01/16 00:21:15;;;;;;;;;;;;;;;-144.99;100.00;52713.09;4955828;28;19937;-56
2022/01/16 00:23:43;;;;;;;;;;;;;;;-144.99;100.00;52717.16;4943752;28;19930;-57
2022/01/16 00:26:09;;;;;;;;;;;;;;;-144.99;100.00;52704.94;4987075;28;19933;-57
2022/01/16 00:28:36;;;;;;;;;;;;;;;-144.99;100.00;52684.53;4943095;28;20443;-57
2022/01/16 00:31:02;;;;;;;;;;;;;;;-144.99;100.00;52731.44;4992620;28;19980;-58
2022/01/16 00:33:29;;;;;;;;;;;;;;;-144.99;100.00;52713.09;4966411;28;19926;-60
2022/01/16 00:35:55;;;;;;;;;;;;;;;-144.99;100.00;52733.47;4941491;28;19926;-57
2022/01/16 00:38:21;;;;;;;;;;;;;;;-144.99;100.00;52676.38;4949526;28;20496;-56
2022/01/16 00:40:49;;;;;;;;;;;;;;;-144.99;100.00;52696.78;4948522;28;19933;-57
2022/01/16 00:43:15;;;;;;;;;;;;;;;-144.99;100.00;52692.69;4949199;28;19933;-59
2022/01/16 00:45:44;;;;;;;;;;;;;;;-144.99;100.00;52700.84;4960118;28;20141;-58
2022/01/16 00:48:10;;;;;;;;;;;;;;;-144.99;100.00;52668.22;5045969;28;19932;-60
2022/01/16 00:50:36;;;;;;;;;;;;;;;-144.99;100.00;52721.22;4949230;28;20398;-57
2022/01/16 00:53:03;;;;;;;;;;;;;;;-144.99;100.00;52723.28;4943207;29;20291;-62
2022/01/16 00:55:30;;;;;;;;;;;;;;;-144.99;100.00;52713.09;4949448;28;19933;-66
2022/01/16 00:57:57;;;;;;;;;;;;;;;-144.99;100.00;52729.38;4950502;28;19930;-62
2022/01/16 01:00:24;;;;;;;;;;;;;;;-144.99;100.00;52700.84;4955180;28;20407;-63
2022/01/16 01:02:53;;;;;;;;;;;;;;;-144.99;100.00;52704.94;4948796;28;19927;-63
2022/01/16 01:05:19;;;;;;;;;;;;;;;-144.99;100.00;52704.94;4950296;28;19930;-64
2022/01/16 01:07:45;;;;;;;;;;;;;;;-144.99;100.00;52745.69;4989185;28;19925;-63
2022/01/16 01:10:12;;;;;;;;;;;;;;;-144.99;100.00;52692.69;4949242;28;20029;-62
2022/01/16 01:12:52;;;;;;;;;;;;;;;-144.99;100.00;52717.16;4948774;28;19927;-62
2022/01/16 01:15:21;;;;;;;;;;;;;;;-144.99;100.00;52709.00;4947284;28;20022;-62
2022/01/16 01:17:48;;;;;;;;;;;;;;;-144.99;100.00;52692.69;4948999;28;19931;-62
2022/01/16 01:20:17;;;;;;;;;;;;;;;-144.99;100.00;52682.50;4948398;28;19927;-62
2022/01/16 01:22:44;;;;;;;;;;;;;;;-144.99;100.00;52715.13;4936727;28;20284;-63
2022/01/16 01:25:13;;;;;;;;;;;;;;;-144.99;100.00;52745.69;4955405;28;20473;-61
2022/01/16 01:27:41;;;;;;;;;;;;;;;-144.99;100.00;52704.94;4948150;28;20477;-61
2022/01/16 01:30:09;;;;;;;;;;;;;;;-144.99;100.00;52664.16;4949042;28;19984;-62
2022/01/16 01:32:38;;;;;;;;;;;;;;;-144.99;100.00;52729.38;4948703;28;19968;-62
2022/01/16 01:35:05;;;;;;;;;;;;;;;-144.99;100.00;52725.31;4948525;28;19943;-61
2022/01/16 01:37:31;;;;;;;;;;;;;;;-144.99;100.00;52709.00;4947329;28;19930;-61
2022/01/16 01:39:57;;;;;;;;;;;;;;;-144.99;100.00;52721.22;4948049;28;19927;-60
2022/01/16 01:42:30;;;;;;;;;;;;;;;-144.99;100.00;52717.16;4947947;28;19927;-60
2022/01/16 01:53:17;;;;;;;;;;;;;;;-144.99;100.00;52672.31;4947460;28;20036;-60
2022/01/16 01:55:44;;;;;;;;;;;;;;;-144.99;100.00;52721.22;4947596;28;19937;-61
2022/01/16 01:58:11;;;;;;;;;;;;;;;-144.99;100.00;52709.00;4957735;28;20025;-61
2022/01/16 02:00:38;;;;;;;;;;;;;;;-144.99;100.00;52700.84;4953049;28;19931;-60
2022/01/16 02:03:15;;;;;;;;;;;;;;;-144.99;100.00;52713.09;4947841;28;19930;-62
2022/01/16 02:05:42;;;;;;;;;;;;;;;-144.99;100.00;52717.16;4948574;28;19926;-60
2022/01/16 02:08:09;;;;;;;;;;;;;;;-144.99;100.00;52729.38;4984256;28;19928;-62
2022/01/16 02:10:36;;;;;;;;;;;;;;;-144.99;100.00;52692.69;4957568;28;19930;-61
2022/01/16 02:13:05;;;;;;;;;;;;;;;-144.99;100.00;52741.63;4947815;28;19931;-59
2022/01/16 02:15:51;;;;;;;;;;;;;;;-144.99;100.00;52692.69;4947849;28;19933;-59
2022/01/16 02:29:55;;;;;;;;;;;;;;;-144.99;100.00;52674.34;4947877;28;20404;-61
2022/01/16 02:35:01;;;;;;;;;;;;;;;-144.99;100.00;52709.00;4947379;28;19937;-61
2022/01/16 02:37:27;;;;;;;;;;;;;;;-144.99;100.00;52725.31;4958423;28;20432;-60
2022/01/16 02:40:02;;;;;;;;;;;;;;;-144.99;100.00;52717.16;4947238;28;20259;-61
2022/01/16 02:42:35;;;;;;;;;;;;;;;-144.99;100.00;52713.09;4947095;28;20312;-58
2022/01/16 02:45:03;;;;;;;;;;;;;;;-144.99;100.00;52721.22;4951511;28;20293;-59
2022/01/16 02:47:31;;;;;;;;;;;;;;;-144.99;100.00;52717.16;5002857;28;19928;-59
2022/01/16 02:50:00;;;;;;;;;;;;;;;-144.99;100.00;52713.09;4959996;28;19957;-58
2022/01/16 02:52:26;;;;;;;;;;;;;;;-144.99;100.00;52713.09;4947239;28;19950;-58
2022/01/16 02:54:54;;;;;;;;;;;;;;;-144.99;100.00;52700.84;4946239;28;20395;-58
2022/01/16 02:57:22;;;;;;;;;;;;;;;-144.99;100.00;52696.78;4949881;28;19930;-58
2022/01/16 02:59:50;;;;;;;;;;;;;;;-144.99;100.00;52706.97;4983335;28;19965;-59
2022/01/16 03:02:18;;;;;;;;;;;;;;;-144.99;100.00;52725.31;4992817;28;19929;-60
2022/01/16 03:04:44;;;;;;;;;;;;;;;-144.99;100.00;52713.09;4962087;28;19954;-61
2022/01/16 03:07:11;;;;;;;;;;;;;;;-144.99;100.00;52704.94;4945318;28;19962;-60
2022/01/16 03:09:53;;;;;;;;;;;;;;;-144.99;100.00;52680.47;4946052;28;20402;-61
2022/01/16 03:12:20;;;;;;;;;;;;;;;-144.99;100.00;52733.47;4947385;28;20411;-61
2022/01/16 03:14:47;;;;;;;;;;;;;;;-144.99;100.00;52688.63;4947108;28;19959;-60
2022/01/16 03:17:23;;;;;;;;;;;;;;;-144.99;100.00;52721.22;4946279;28;19946;-60
2022/01/16 03:22:33;;;;;;;;;;;;;;;-144.99;100.00;52719.19;4946962;28;20352;-64
2022/01/16 03:24:59;;;;;;;;;;;;;;;-144.99;100.00;52686.59;4958626;28;19936;-61
2022/01/16 03:27:26;;;;;;;;;;;;;;;-144.99;100.00;52686.59;4958383;28;19934;-61
2022/01/16 03:29:57;;;;;;;;;;;;;;;-144.99;100.00;52717.16;5030223;28;19933;-61
2022/01/16 03:32:23;;;;;;;;;;;;;;;-144.99;100.00;52706.97;4953740;28;19968;-61
2022/01/16 03:34:50;;;;;;;;;;;;;;;-144.99;100.00;52719.19;4946983;28;19930;-60
2022/01/16 03:37:16;;;;;;;;;;;;;;;-144.99;100.00;52721.22;4957727;28;19940;-61
2022/01/16 03:39:43;;;;;;;;;;;;;;;-144.99;100.00;52717.16;4936302;28;20399;-61
2022/01/16 03:42:09;;;;;;;;;;;;;;;-144.99;100.00;52676.38;4940738;28;20413;-62
2022/01/16 03:44:36;;;;;;;;;;;;;;;-144.99;100.00;52713.09;4602821;28;10000191;-65
2022/01/16 03:47:04;;;;;;;;;;;;;;;-144.99;100.00;52713.09;4946432;28;19930;-64
2022/01/16 03:49:31;;;;;;;;;;;;;;;-144.99;100.00;52688.63;4943175;28;19927;-64
2022/01/16 03:51:58;;;;;;;;;;;;;;;-144.99;100.00;52711.03;4992751;28;20359;-64
2022/01/16 03:54:27;;;;;;;;;;;;;;;-144.99;100.00;52737.53;4978711;28;20295;-59
2022/01/16 03:59:36;;;;;;;;;;;;;;;-144.99;100.00;52688.63;4983693;28;19930;-57
2022/01/16 04:02:04;;;;;;;;;;;;;;;-144.99;100.00;52713.09;5033918;28;19968;-55
2022/01/16 04:04:31;;;;;;;;;;;;;;;-144.99;100.00;52684.53;4969477;28;19983;-57
2022/01/16 04:06:58;;;;;;;;;;;;;;;-144.99;100.00;52713.09;4969577;28;19948;-56
2022/01/16 04:09:25;;;;;;;;;;;;;;;-144.99;100.00;52674.34;4969308;28;19926;-59
2022/01/16 04:11:54;;;;;;;;;;;;;;;-144.99;100.00;52660.09;4967703;28;20274;-57
2022/01/16 04:14:26;;;;;;;;;;;;;;;-144.99;100.00;52676.38;4969940;28;19941;-61
2022/01/16 04:16:52;;;;;;;;;;;;;;;-144.99;100.00;52700.84;4969623;28;20448;-59
2022/01/16 04:19:21;;;;;;;;;;;;;;;-144.99;100.00;52688.63;4969748;28;20402;-57
2022/01/16 04:21:47;;;;;;;;;;;;;;;-144.99;100.00;52709.00;4969386;28;19927;-57
2022/01/16 04:24:13;;;;;;;;;;;;;;;-144.99;100.00;52684.53;4966088;28;19926;-57
2022/01/16 04:26:39;;;;;;;;;;;;;;;-144.99;100.00;52690.66;4965344;28;20025;-57
2022/01/16 04:29:06;;;;;;;;;;;;;;;-144.99;100.00;52704.94;4969664;28;19934;-57
2022/01/16 04:31:32;;;;;;;;;;;;;;;-144.99;100.00;52721.22;4967702;28;19970;-57
2022/01/16 04:33:58;;;;;;;;;;;;;;;-144.99;100.00;52688.63;4976011;28;20009;-57
2022/01/16 04:36:26;;;;;;;;;;;;;;;-144.99;100.00;52688.63;4961407;28;19940;-57
2022/01/16 04:38:52;;;;;;;;;;;;;;;-144.99;100.00;52696.78;4969241;28;20008;-57
2022/01/16 04:44:04;;;;;;;;;;;;;;;-144.99;100.00;52709.00;4965889;28;20773;-57
2022/01/16 04:46:31;;;;;;;;;;;;;;;-144.99;100.00;52713.09;4969237;28;19926;-57
2022/01/16 04:48:58;;;;;;;;;;;;;;;-144.99;100.00;52692.69;4967725;28;19926;-57
2022/01/16 04:51:25;;;;;;;;;;;;;;;-144.99;100.00;52660.09;4968151;28;19976;-58
2022/01/16 04:53:53;;;;;;;;;;;;;;;-144.99;100.00;52698.81;4968767;28;20006;-59
2022/01/16 04:56:19;;;;;;;;;;;;;;;-144.99;100.00;52733.47;4968992;28;20001;-65
2022/01/16 04:58:46;;;;;;;;;;;;;;;-144.99;100.00;52668.22;5002324;28;20395;-65
2022/01/16 05:01:12;;;;;;;;;;;;;;;-144.99;100.00;52692.69;4969030;28;19930;-65
2022/01/16 05:03:39;;;;;;;;;;;;;;;-144.99;100.00;52709.00;4966967;28;19926;-64
2022/01/16 05:06:06;;;;;;;;;;;;;;;-144.99;100.00;52745.69;4967297;28;19926;-65
2022/01/16 05:08:32;;;;;;;;;;;;;;;-144.99;100.00;52668.22;4968580;28;20387;-64
2022/01/16 05:11:00;;;;;;;;;;;;;;;-144.99;100.00;52715.13;4968527;28;19948;-64
2022/01/16 05:16:33;;;;;;;;;;;;;;;-144.99;100.00;52668.22;4966548;28;19984;-65
2022/01/16 05:19:00;;;;;;;;;;;;;;;-144.99;100.00;52684.53;4968156;28;20318;-60
2022/01/16 05:21:26;;;;;;;;;;;;;;;-144.99;100.00;52704.94;4968245;28;19972;-60
2022/01/16 05:23:53;;;;;;;;;;;;;;;-144.99;100.00;52696.78;4967455;28;20381;-60
2022/01/16 05:26:26;;;;;;;;;;;;;;;-144.99;100.00;52717.16;4963758;28;20363;-59
2022/01/16 05:28:52;;;;;;;;;;;;;;;-144.99;100.00;52717.16;4954287;28;19984;-60
2022/01/16 05:31:19;;;;;;;;;;;;;;;-144.99;100.00;52668.22;4956636;28;19934;-60
2022/01/16 05:33:45;;;;;;;;;;;;;;;-144.99;100.00;52704.94;4966836;28;19956;-60
2022/01/16 05:36:11;;;;;;;;;;;;;;;-144.99;100.00;52696.78;4968434;28;19930;-60
2022/01/16 05:38:38;;;;;;;;;;;;;;;-144.99;100.00;52745.69;4966248;28;19926;-60
2022/01/16 05:41:04;;;;;;;;;;;;;;;-144.99;100.00;52717.16;4967382;28;19938;-60
2022/01/16 05:43:32;;;;;;;;;;;;;;;-144.99;100.00;52700.84;4967545;28;20319;-59
2022/01/16 05:45:58;;;;;;;;;;;;;;;-144.99;100.00;52660.09;4961778;28;19934;-60
2022/01/16 05:48:26;;;;;;;;;;;;;;;-144.99;100.00;52745.69;4967907;28;19944;-60
2022/01/16 05:50:52;;;;;;;;;;;;;;;-144.99;100.00;52721.22;4967838;28;20358;-60
2022/01/16 05:53:18;;;;;;;;;;;;;;;-144.99;100.00;52680.47;4967610;28;20402;-59
2022/01/16 05:55:45;;;;;;;;;;;;;;;-144.99;100.00;52704.94;4965525;28;19972;-59
2022/01/16 05:58:11;;;;;;;;;;;;;;;-144.99;100.00;52684.53;4965365;28;20310;-59
2022/01/16 06:00:39;;;;;;;;;;;;;;;-144.99;100.00;52717.16;4963764;28;19972;-58
2022/01/16 06:03:06;;;;;;;;;;;;;;;-144.99;100.00;52741.63;4967537;28;19931;-58
2022/01/16 06:05:33;;;;;;;;;;;;;;;-144.99;100.00;52733.47;4965971;28;19984;-60
2022/01/16 06:08:01;;;;;;;;;;;;;;;-144.99;100.00;52700.84;4968023;28;19926;-61
2022/01/16 06:10:27;;;;;;;;;;;;;;;-144.99;100.00;52680.47;4967750;28;19933;-61
2022/01/16 06:12:54;;;;;;;;;;;;;;;-144.99;100.00;52698.81;4967397;28;20333;-61
2022/01/16 06:15:20;;;;;;;;;;;;;;;-144.99;100.00;52700.84;4967103;28;19927;-61
2022/01/16 06:17:48;;;;;;;;;;;;;;;-144.99;100.00;52713.09;4961018;28;19972;-60
2022/01/16 06:20:15;;;;;;;;;;;;;;;-144.99;100.00;52692.69;4968724;28;20191;-59
2022/01/16 06:22:41;;;;;;;;;;;;;;;-144.99;100.00;52686.59;4967691;28;20433;-60
2022/01/16 06:25:08;;;;;;;;;;;;;;;-144.99;100.00;52676.38;4959012;28;19946;-57
2022/01/16 06:27:34;;;;;;;;;;;;;;;-144.99;100.00;52684.53;4968458;28;20310;-59
2022/01/16 06:30:01;;;;;;;;;;;;;;;-144.99;100.00;52688.63;4968324;28;20294;-59
2022/01/16 06:32:27;;;;;;;;;;;;;;;-144.99;100.00;52639.69;4967130;28;20018;-57
2022/01/16 06:34:55;;;;;;;;;;;;;;;-144.99;100.00;52729.38;4979011;28;19985;-57
2022/01/16 06:37:21;;;;;;;;;;;;;;;-144.99;100.00;52668.22;4962946;28;19935;-57
2022/01/16 06:39:47;;;;;;;;;;;;;;;-144.99;100.00;52692.69;4964855;28;19957;-58
2022/01/16 06:42:14;;;;;;;;;;;;;;;-144.99;100.00;52688.63;4968490;28;20321;-58
2022/01/16 06:44:40;;;;;;;;;;;;;;;-144.99;100.00;52688.63;4967838;28;19926;-55
2022/01/16 06:47:06;;;;;;;;;;;;;;;-144.99;100.00;52709.00;4971435;28;19925;-57
2022/01/16 06:49:33;;;;;;;;;;;;;;;-144.99;100.00;52700.84;4966477;28;19934;-57
2022/01/16 06:52:00;;;;;;;;;;;;;;;-144.99;100.00;52700.84;4967801;28;19926;-57
2022/01/16 06:54:27;;;;;;;;;;;;;;;-144.99;100.00;52680.47;4966726;28;19926;-58
2022/01/16 06:56:53;;;;;;;;;;;;;;;-144.99;100.00;52672.31;4965253;28;20375;-59
2022/01/16 06:59:20;;;;;;;;;;;;;;;-144.99;100.00;52668.22;4961279;28;20009;-59
2022/01/16 07:01:46;;;;;;;;;;;;;;;-144.99;100.00;52700.84;4967356;28;20025;-59
2022/01/16 07:04:12;;;;;;;;;;;;;;;-144.99;100.00;52721.22;4967000;28;19930;-59
2022/01/16 07:06:39;;;;;;;;;;;;;;;-144.99;100.00;52668.22;4965666;28;19926;-59
2022/01/16 07:09:06;;;;;;;;;;;;;;;-144.99;100.00;52664.16;4965842;28;19932;-59
2022/01/16 07:11:33;;;;;;;;;;;;;;;-144.99;100.00;52709.00;4967162;28;19930;-59
2022/01/16 07:13:59;;;;;;;;;;;;;;;-144.99;100.00;52686.59;4966859;28;19950;-59
2022/01/16 07:16:25;;;;;;;;;;;;;;;-144.99;100.00;52692.69;4966873;28;20410;-59
2022/01/16 07:18:52;;;;;;;;;;;;;;;-144.99;100.00;52690.66;4965177;28;19934;-59
2022/01/16 07:21:18;;;;;;;;;;;;;;;-144.99;100.00;52688.63;4966784;28;20311;-60
2022/01/16 07:23:46;;;;;;;;;;;;;;;-144.99;100.00;52643.78;4961945;28;19930;-59
2022/01/16 07:26:15;;;;;;;;;;;;;;;-144.99;100.00;52715.13;4960110;28;19926;-59
2022/01/16 07:28:41;;;;;;;;;;;;;;;-144.99;100.00;52706.97;4954816;28;20303;-59
2022/01/16 07:31:08;;;;;;;;;;;;;;;-144.99;100.00;52741.63;4965544;28;19941;-59
2022/01/16 07:33:34;;;;;;;;;;;;;;;-144.99;100.00;52704.94;4966946;28;20086;-59
2022/01/16 07:36:01;;;;;;;;;;;;;;;-144.99;100.00;52692.69;4966272;28;20395;-60
2022/01/16 07:38:27;;;;;;;;;;;;;;;-144.99;100.00;52688.63;4966692;28;19981;-60
2022/01/16 07:40:53;;;;;;;;;;;;;;;-144.99;100.00;52664.16;4962542;28;20013;-58
2022/01/16 07:43:21;;;;;;;;;;;;;;;-144.99;100.00;52690.66;4966540;28;19964;-57
2022/01/16 07:45:47;;;;;;;;;;;;;;;-144.99;100.00;52680.47;4966938;28;19954;-57
2022/01/16 07:48:14;;;;;;;;;;;;;;;-144.99;100.00;52690.66;4966471;28;20573;-57
2022/01/16 07:50:40;;;;;;;;;;;;;;;-144.99;100.00;52680.47;4964733;28;19926;-57
2022/01/16 07:53:07;;;;;;;;;;;;;;;-144.99;100.00;52672.31;4966716;28;19926;-58
2022/01/16 07:55:34;;;;;;;;;;;;;;;-144.99;100.00;52709.00;4965134;28;19945;-58
2022/01/16 07:58:00;;;;;;;;;;;;;;;-144.99;100.00;52721.22;4964195;28;19926;-57
2022/01/16 08:00:28;;;;;;;;;;;;;;;-144.99;100.00;52686.59;4959196;28;19926;-57
2022/01/16 08:02:57;;;;;;;;;;;;;;;-144.99;100.00;52709.00;4966650;28;19934;-57
2022/01/16 08:05:23;;;;;;;;;;;;;;;-144.99;100.00;52688.63;4965830;28;20352;-55
2022/01/16 08:07:50;;;;;;;;;;;;;;;-144.99;100.00;52721.22;4966780;28;20374;-60
2022/01/16 08:10:16;;;;;;;;;;;;;;;-144.99;100.00;52692.69;4965276;28;19945;-58
2022/01/16 08:12:42;;;;;;;;;;;;;;;-144.99;100.00;52696.78;4965039;28;19930;-59
2022/01/16 08:15:09;;;;;;;;;;;;;;;-144.99;100.00;52696.78;4966208;28;19926;-60
2022/01/16 08:17:37;;;;;;;;;;;;;;;-144.99;100.00;52660.09;4966497;28;19948;-59
2022/01/16 08:20:05;;;;;;;;;;;;;;;-144.99;100.00;52692.69;4965925;28;19962;-59
2022/01/16 08:22:31;;;;;;;;;;;;;;;-144.99;100.00;52713.09;4965712;28;20315;-58
2022/01/16 08:24:57;;;;;;;;;;;;;;;-144.99;100.00;52721.22;4965444;28;20201;-60
2022/01/16 08:27:24;;;;;;;;;;;;;;;-144.99;100.00;52690.66;4964129;28;19926;-61
2022/01/16 08:29:50;;;;;;;;;;;;;;;-144.99;100.00;52704.94;4955249;28;19926;-60
2022/01/16 08:32:17;;;;;;;;;;;;;;;-144.99;100.00;52668.22;4965091;28;19933;-60
2022/01/16 08:34:45;;;;;;;;;;;;;;;-144.99;100.00;52696.78;4966320;28;20031;-60
2022/01/16 08:37:11;;;;;;;;;;;;;;;-144.99;100.00;52656.00;4967256;28;20358;-61
2022/01/16 08:39:37;;;;;;;;;;;;;;;-144.99;100.00;52700.84;4966445;28;20028;-61
2022/01/16 08:42:04;;;;;;;;;;;;;;;-144.99;100.00;52698.81;4966465;28;19962;-59
2022/01/16 08:44:30;;;;;;;;;;;;;;;-144.99;100.00;52688.63;4966109;28;19939;-59
2022/01/16 08:46:57;;;;;;;;;;;;;;;-144.99;100.00;52664.16;4966229;28;19971;-61
2022/01/16 08:49:23;;;;;;;;;;;;;;;-144.99;100.00;52670.28;4969471;28;19926;-60
2022/01/16 08:51:51;;;;;;;;;;;;;;;-144.99;100.00;52680.47;4968918;28;19968;-60
2022/01/16 08:54:18;;;;;;;;;;;;;;;-144.99;100.00;52709.00;4968057;28;20015;-61
2022/01/16 08:56:44;;;;;;;;;;;;;;;-144.99;100.00;52651.94;4967757;28;20011;-60
2022/01/16 08:59:10;;;;;;;;;;;;;;;-144.99;100.00;52680.47;4999981;28;19926;-60
2022/01/16 09:01:39;;;;;;;;;;;;;;;-144.99;100.00;52713.09;4973914;28;20346;-61
2022/01/16 09:04:06;;;;;;;;;;;;;;;-144.99;100.00;52684.53;4968045;28;19927;-60
2022/01/16 09:06:32;;;;;;;;;;;;;;;-144.99;100.00;52725.31;4966204;28;19927;-61
2022/01/16 09:09:00;;;;;;;;;;;;;;;-144.99;100.00;52709.00;4968654;28;20020;-60
2022/01/16 09:11:27;;;;;;;;;;;;;;;-144.99;100.00;52704.94;4968969;28;19926;-59
2022/01/16 09:13:53;;;;;;;;;;;;;;;-144.99;100.00;52651.94;4968684;28;19931;-59
2022/01/16 09:16:20;;;;;;;;;;;;;;;-144.99;100.00;52696.78;4968963;28;19926;-60
2022/01/16 09:18:47;;;;;;;;;;;;;;;-144.99;100.00;52670.28;4968940;28;19953;-60
2022/01/16 09:21:14;;;;;;;;;;;;;;;-144.99;100.00;52731.44;4967729;28;20409;-60
2022/01/16 09:23:40;;;;;;;;;;;;;;;-144.99;100.00;52682.50;4967607;28;19965;-60
2022/01/16 09:26:08;;;;;;;;;;;;;;;-144.99;100.00;52709.00;4963697;28;19992;-60
2022/01/16 09:28:34;;;;;;;;;;;;;;;-144.99;100.00;52696.78;4968678;28;20287;-60
2022/01/16 09:31:00;;;;;;;;;;;;;;;-144.99;100.00;52696.78;4968860;28;19963;-59
2022/01/16 09:33:27;;;;;;;;;;;;;;;-144.99;100.00;52676.38;4965808;28;19995;-59
2022/01/16 09:35:54;;;;;;;;;;;;;;;-144.99;100.00;52680.47;4967795;28;19930;-60
2022/01/16 09:38:22;;;;;;;;;;;;;;;-144.99;100.00;52713.09;4967914;28;19983;-59
2022/01/16 09:40:49;;;;;;;;;;;;;;;-144.99;100.00;52676.38;4955768;28;19969;-59
2022/01/16 09:43:17;;;;;;;;;;;;;;;-144.99;100.00;52670.28;4968014;28;20307;-59
2022/01/16 09:45:43;;;;;;;;;;;;;;;-144.99;100.00;52668.22;4968147;28;19966;-59
2022/01/16 09:48:10;;;;;;;;;;;;;;;-144.99;100.00;52660.09;4968345;28;19930;-63
2022/01/16 09:50:36;;;;;;;;;;;;;;;-144.99;100.00;52700.84;4968922;28;19953;-59
2022/01/16 09:53:03;;;;;;;;;;;;;;;-144.99;100.00;52688.63;4968559;28;19927;-60
2022/01/16 09:55:29;;;;;;;;;;;;;;;-144.99;100.00;52725.31;4962106;28;19990;-59
2022/01/16 09:57:56;;;;;;;;;;;;;;;-144.99;100.00;52704.94;4998986;28;19994;-59
2022/01/16 10:00:25;;;;;;;;;;;;;;;-144.99;100.00;52653.97;4949467;28;19933;-60
2022/01/16 10:02:52;;;;;;;;;;;;;;;-144.99;100.00;52692.69;4959882;28;20047;-60
2022/01/16 10:05:22;;;;;;;;;;;;;;;-144.99;100.00;52676.38;4969794;23;20070;-60
2022/01/16 10:07:49;;;;;;;;;;;;;;;-144.99;100.00;52706.97;4950970;28;20052;-66
2022/01/16 10:10:15;;;;;;;;;;;;;;;-144.99;100.00;52717.16;4950297;29;19965;-70
2022/01/16 10:12:48;;;;;;;;;;;;;;;-144.99;100.00;52682.50;4940616;28;19931;-66
2022/01/16 10:15:18;;;;;;;;;;;;;;;-144.99;100.00;52643.78;4949282;28;20391;-67
2022/01/16 10:17:46;;;;;;;;;;;;;;;-144.99;100.00;52660.09;4931757;28;19969;-67
2022/01/16 10:20:14;;;;;;;;;;;;;;;-144.99;100.00;52688.63;4930782;28;20181;-66
2022/01/16 10:22:42;;;;;;;;;;;;;;;-144.99;100.00;52704.94;4931239;29;20013;-67
2022/01/16 10:25:09;;;;;;;;;;;;;;;-144.99;100.00;52717.16;4926296;28;20085;-67
2022/01/16 10:27:37;;;;;;;;;;;;;;;-144.99;100.00;52682.50;4941597;28;19934;-67
2022/01/16 10:30:07;;;;;;;;;;;;;;;-144.99;100.00;52674.34;4931006;28;19966;-67
2022/01/16 10:32:34;;;;;;;;;;;;;;;-144.99;100.00;52684.53;4932302;28;19931;-67
2022/01/16 10:35:09;;;;;;;;;;;;;;;-144.99;100.00;52645.81;4930687;28;19969;-67
2022/01/16 10:37:35;;;;;;;;;;;;;;;-144.99;100.00;52684.53;4932148;28;19988;-67
2022/01/16 10:40:05;;;;;;;;;;;;;;;-144.99;100.00;52651.94;4930413;29;19931;-68
2022/01/16 10:42:32;;;;;;;;;;;;;;;-144.99;100.00;52678.44;4931187;28;19931;-67
2022/01/16 10:45:01;;;;;;;;;;;;;;;-144.99;100.00;52700.84;4930692;28;19949;-67
2022/01/16 10:47:29;;;;;;;;;;;;;;;-144.99;100.00;52688.63;4931428;28;19927;-66
2022/01/16 10:50:03;;;;;;;;;;;;;;;-144.99;100.00;52664.16;4930435;28;19934;-67
2022/01/16 10:52:31;;;;;;;;;;;;;;;-144.99;100.00;52676.38;4953034;28;19933;-67
2022/01/16 10:55:05;;;;;;;;;;;;;;;-144.99;100.00;52692.69;4938189;28;19938;-67
2022/01/16 10:57:31;;;;;;;;;;;;;;;-144.99;100.00;52611.16;4934545;28;19934;-67
2022/01/16 11:00:05;;;;;;;;;;;;;;;-144.99;100.00;52676.38;4930846;28;20001;-65
2022/01/16 11:02:32;;;;;;;;;;;;;;;-144.99;100.00;52700.84;4931015;28;19931;-66
2022/01/16 11:05:04;;;;;;;;;;;;;;;-144.99;100.00;52711.03;4930404;28;19974;-67
2022/01/16 11:07:32;;;;;;;;;;;;;;;-144.99;100.00;52690.66;4931358;29;19966;-68
2022/01/16 11:09:58;;;;;;;;;;;;;;;-144.99;100.00;52660.09;4948963;28;19933;-67
2022/01/16 11:12:24;;;;;;;;;;;;;;;-144.99;100.00;52647.84;4960397;28;20295;-67
2022/01/16 11:14:51;;;;;;;;;;;;;;;-144.99;100.00;52664.16;4930280;28;19965;-67
2022/01/16 11:17:18;;;;;;;;;;;;;;;-144.99;100.00;52651.94;4931369;28;20228;-66
2022/01/16 11:19:44;;;;;;;;;;;;;;;-144.99;100.00;52684.53;4929936;29;19930;-67
2022/01/16 11:22:12;;;;;;;;;;;;;;;-144.99;100.00;52664.16;4930482;28;19971;-66
2022/01/16 11:24:59;;;;;;;;;;;;;;;-144.99;100.00;52694.72;4928407;28;19962;-67
2022/01/16 11:27:26;;;;;;;;;;;;;;;-144.99;100.00;52664.16;4933580;28;19953;-65
2022/01/16 11:29:52;;;;;;;;;;;;;;;-144.99;100.00;52692.69;4930104;28;20076;-66
2022/01/16 11:32:19;;;;;;;;;;;;;;;-144.99;100.00;52660.09;4930380;29;19973;-65
2022/01/16 11:34:45;;;;;;;;;;;;;;;-144.99;100.00;52688.63;4930461;29;19941;-64
2022/01/16 11:37:13;;;;;;;;;;;;;;;-144.99;100.00;52713.09;4932823;28;19975;-65
2022/01/16 11:39:41;;;;;;;;;;;;;;;-144.99;100.00;52643.78;4930272;28;20195;-67
2022/01/16 11:42:15;;;;;;;;;;;;;;;-144.99;100.00;52660.09;4929902;28;19995;-66
2022/01/16 11:44:50;;;;;;;;;;;;;;;-144.99;100.00;52668.22;4935573;28;19956;-66
2022/01/16 11:47:16;;;;;;;;;;;;;;;-144.99;100.00;52688.63;4939047;28;19926;-66
2022/01/16 11:49:43;;;;;;;;;;;;;;;-144.99;100.00;52668.22;4937987;28;19957;-66
2022/01/16 11:52:10;;;;;;;;;;;;;;;-144.99;100.00;52721.22;4930059;28;20263;-66
2022/01/16 11:54:42;;;;;;;;;;;;;;;-144.99;100.00;52692.69;4930024;29;20397;-66
2022/01/16 11:57:19;;;;;;;;;;;;;;;-144.99;100.00;52688.63;4930445;29;20048;-66
2022/01/16 11:59:46;;;;;;;;;;;;;;;-144.99;100.00;52696.78;4941826;28;19948;-68
2022/01/16 12:02:22;;;;;;;;;;;;;;;-144.99;100.00;52660.09;4930137;28;20633;-67
2022/01/16 12:04:54;;;;;;;;;;;;;;;-144.99;100.00;52668.22;4929043;28;19946;-65
2022/01/16 12:07:44;;;;;;;;;;;;;;;-144.99;100.00;52637.66;4929948;28;20313;-71
2022/01/16 12:10:12;;;;;;;;;;;;;;;-144.99;100.00;52651.94;4918437;28;19954;-71
2022/01/16 12:12:38;;;;;;;;;;;;;;;-144.99;100.00;52656.00;4930322;28;19927;-69
2022/01/16 12:15:06;;;;;;;;;;;;;;;-144.99;100.00;52676.38;4929491;28;19927;-67
2022/01/16 12:17:34;;;;;;;;;;;;;;;-144.99;100.00;52660.09;4929781;28;19962;-65
2022/01/16 12:20:21;;;;;;;;;;;;;;;-144.99;100.00;52627.47;4930038;29;19958;-67
2022/01/16 12:22:48;;;;;;;;;;;;;;;-144.99;100.00;52653.97;4930810;28;19968;-66
2022/01/16 12:25:20;;;;;;;;;;;;;;;-144.99;100.00;52668.22;4943342;28;19945;-67
2022/01/16 12:27:48;;;;;;;;;;;;;;;-144.99;100.00;52672.31;4930732;29;20306;-66
2022/01/16 12:30:16;;;;;;;;;;;;;;;-144.99;100.00;52668.22;4943298;28;19954;-66
2022/01/16 12:32:52;;;;;;;;;;;;;;;-144.99;100.00;52725.31;4990838;28;20356;-67
2022/01/16 12:35:37;;;;;;;;;;;;;;;-144.99;100.00;52664.16;4975657;28;19941;-67
2022/01/16 12:38:06;;;;;;;;;;;;;;;-144.99;100.00;52660.09;4939877;28;20301;-67
2022/01/16 12:40:34;;;;;;;;;;;;;;;-144.99;100.00;52700.84;4932857;28;19926;-67
2022/01/16 12:43:00;;;;;;;;;;;;;;;-144.99;100.00;52678.44;4932693;29;19968;-67
2022/01/16 12:45:29;;;;;;;;;;;;;;;-144.99;100.00;52639.69;4942163;29;19959;-66
2022/01/16 12:47:55;;;;;;;;;;;;;;;-144.99;100.00;52676.38;4932886;28;20034;-66
2022/01/16 12:50:22;;;;;;;;;;;;;;;-144.99;100.00;52668.22;4930430;28;19960;-66
2022/01/16 12:52:49;;;;;;;;;;;;;;;-144.99;100.00;52660.09;4961171;28;19941;-66
2022/01/16 12:55:15;;;;;;;;;;;;;;;-144.99;100.00;52651.94;4945971;28;19977;-67
2022/01/16 12:57:43;;;;;;;;;;;;;;;-144.99;100.00;52656.00;4926365;28;20347;-65